Weather History for KHNZ - May, 2014

Change the Weather History Date:

Monday, May 12, 2014

  Actual Average (KTDF) Record (KTDF)
Temperature  
Mean Temperature 72 °F -  
Max Temperature 87 °F 77 °F 91 °F (2005)
Min Temperature 57 °F 52 °F 33 °F (2001)
Cooling Degree Days 7    
Growing Degree Days 22 (Base 50)    
Moisture  
Dew Point 58 °F    
Average Humidity 64    
Maximum Humidity 94    
Minimum Humidity 29    
Precipitation  
Precipitation 0.00 in - - ()
Sea Level Pressure  
Sea Level Pressure 30.15 in    
Wind  
Wind Speed 2 mph (SSW)    
Max Wind Speed 10 mph    
Max Gust Speed 9 mph    
Visibility 10 miles    
Events      
Averages and records for this station are not official NWS values.
T = Trace of Precipitation, MM = Missing Value Source: NWS Daily Summary

Daily Weather History Graph

Daily Weather History Graph

Search for Another Location

Airport or City:

Trip Planner

Search our weather history database for the weather conditions in past years. The results will help you decide how hot, cold, wet, or windy it might be!

Date:

Astronomy

May. 12, 2014 Rise Set
Actual Time 6:10 AM EDT 8:11 PM EDT
Civil Twilight 5:41 AM EDT 8:39 PM EDT
Nautical Twilight 5:06 AM EDT 9:14 PM EDT
Astronomical Twilight 4:29 AM EDT 9:52 PM EDT
Moon 6:10 PM EDT (5/12) 4:43 AM EDT (5/12)
Length of Visible Light 14h 58m
Length of Day
14h 01m
Waxing Gibbous, 95% of the Moon is Illuminated
May 12
Waxing Gibbous
May 14
Full
May 21
Last Quarter
May 28
New
Jun 5
First Quarter

Hourly Weather History & Observations

Time (EDT) Temp. Heat Index Dew Point Humidity Pressure Visibility Wind Dir Wind Speed Gust Speed Precip Events Conditions
12:15 AM 62.8 °F - 59.4 °F 89% 30.16 in 10.0 mi Calm Calm - N/A   Clear
12:35 AM 61.5 °F - 59.0 °F 91% 30.16 in 10.0 mi Calm Calm - N/A   Clear
12:55 AM 61.7 °F - 59.7 °F 93% 30.16 in 10.0 mi Calm Calm - N/A   Clear
1:15 AM 60.8 °F - 58.6 °F 93% 30.16 in 10.0 mi Calm Calm - N/A   Clear
1:35 AM 61.0 °F - 59.0 °F 93% 30.16 in 10.0 mi Calm Calm - N/A   Clear
1:55 AM 61.0 °F - 59.2 °F 94% 30.15 in 7.0 mi Calm Calm - N/A   Clear
2:15 AM 59.7 °F - 57.7 °F 93% 30.15 in 7.0 mi Calm Calm - N/A   Clear
2:35 AM 59.9 °F - 57.9 °F 93% 30.15 in 10.0 mi Calm Calm - N/A   Clear
2:55 AM 58.8 °F - 56.5 °F 92% 30.14 in 10.0 mi Calm Calm - N/A   Clear
3:15 AM 59.7 °F - 57.6 °F 93% 30.14 in 10.0 mi Calm Calm - N/A   Clear
3:35 AM 59.9 °F - 57.6 °F 92% 30.13 in 10.0 mi Calm Calm - N/A   Clear
3:55 AM 58.5 °F - 56.3 °F 93% 30.13 in 7.0 mi Calm Calm - N/A   Clear
4:15 AM 58.3 °F - 56.5 °F 94% 30.13 in 10.0 mi Calm Calm - N/A   Clear
4:35 AM 58.1 °F - 56.3 °F 94% 30.13 in 7.0 mi Calm Calm - N/A   Clear
4:55 AM 58.1 °F - 56.5 °F 94% 30.13 in 10.0 mi Calm Calm - N/A   Clear
5:15 AM 58.3 °F - 56.5 °F 94% 30.13 in 10.0 mi Calm Calm - N/A   Clear
5:35 AM 59.2 °F - 56.7 °F 91% 30.13 in 10.0 mi Calm Calm - N/A   Clear
5:55 AM 57.7 °F - 55.6 °F 92% 30.13 in 10.0 mi Calm Calm - N/A   Clear
6:15 AM 58.5 °F - 56.7 °F 94% 30.13 in 7.0 mi Calm Calm - N/A   Clear
6:35 AM 57.7 °F - 55.8 °F 93% 30.14 in 7.0 mi SW 3.5 mph - N/A   Clear
6:55 AM 58.3 °F - 56.5 °F 94% 30.15 in 7.0 mi Calm Calm - N/A   Clear
7:15 AM 59.9 °F - 57.9 °F 93% 30.16 in 10.0 mi Calm Calm - N/A   Clear
7:35 AM 64.4 °F - 59.7 °F 85% 30.17 in 10.0 mi Calm Calm - N/A   Clear
7:55 AM 66.7 °F - 61.3 °F 83% 30.18 in 10.0 mi Calm Calm - N/A   Clear
8:15 AM 68.4 °F - 60.6 °F 76% 30.18 in 10.0 mi SW 3.5 mph - N/A   Clear
8:35 AM 69.8 °F - 60.1 °F 71% 30.19 in 10.0 mi SSW 3.5 mph - N/A   Clear
8:55 AM 72.0 °F - 60.6 °F 67% 30.19 in 10.0 mi Calm Calm - N/A   Clear
9:15 AM 73.4 °F - 61.2 °F 65% 30.20 in 10.0 mi Calm Calm - N/A   Clear
9:35 AM 74.7 °F - 62.6 °F 66% 30.20 in 10.0 mi Calm Calm - N/A   Clear
9:55 AM 76.1 °F - 64.0 °F 66% 30.21 in 10.0 mi Calm Calm - N/A   Clear
10:15 AM 77.2 °F - 64.6 °F 65% 30.21 in 10.0 mi Calm Calm - N/A   Clear
10:35 AM 78.6 °F - 64.4 °F 62% 30.21 in 10.0 mi SSW 3.5 mph - N/A   Clear
10:55 AM 79.5 °F - 63.9 °F 59% 30.21 in 10.0 mi South 3.5 mph - N/A   Clear
11:15 AM 81.1 °F 82.3 °F 62.6 °F 53% 30.20 in 10.0 mi Calm Calm - N/A   Clear
11:35 AM 81.7 °F 82.6 °F 61.9 °F 51% 30.20 in 10.0 mi WSW 3.5 mph - N/A   Clear
11:55 AM 82.4 °F 82.7 °F 60.1 °F 47% 30.20 in 10.0 mi SSE 5.8 mph - N/A   Clear
12:15 PM 82.9 °F 82.8 °F 59.0 °F 44% 30.20 in 10.0 mi South 3.5 mph - N/A   Clear
12:35 PM 83.8 °F 83.8 °F 59.9 °F 44% 30.20 in 10.0 mi SW 8.1 mph - N/A   Clear
12:55 PM 84.4 °F 83.8 °F 58.1 °F 41% 30.19 in 10.0 mi South 5.8 mph - N/A   Clear
1:15 PM 85.1 °F 84.1 °F 56.5 °F 38% 30.18 in 10.0 mi SW 6.9 mph - N/A   Clear
1:35 PM 85.1 °F 83.9 °F 56.3 °F 37% 30.17 in 10.0 mi SSW 8.1 mph - N/A   Clear
1:55 PM 85.8 °F 84.5 °F 55.9 °F 36% 30.17 in 10.0 mi South 10.4 mph - N/A   Clear
2:15 PM 86.0 °F 84.2 °F 54.1 °F 33% 30.16 in 10.0 mi WSW 4.6 mph - N/A   Clear
2:35 PM 86.2 °F 84.4 °F 53.6 °F 33% 30.16 in 10.0 mi South 8.1 mph - N/A   Clear
2:55 PM 86.9 °F - 51.1 °F 29% 30.16 in 10.0 mi SW 3.5 mph - N/A   Clear
3:15 PM 87.1 °F - 52.7 °F 31% 30.15 in 10.0 mi South 3.5 mph - N/A   Clear
3:35 PM 87.1 °F 85.3 °F 54.5 °F 33% 30.14 in 10.0 mi SSW 4.6 mph - N/A   Clear
3:55 PM 86.9 °F 85.3 °F 55.8 °F 34% 30.13 in 10.0 mi WSW 5.8 mph 9.2 mph N/A   Clear
4:15 PM 87.3 °F 85.1 °F 53.4 °F 31% 30.12 in 10.0 mi South 5.8 mph - N/A   Clear
4:35 PM 87.3 °F - 51.8 °F 29% 30.12 in 10.0 mi South 6.9 mph - N/A   Clear
4:55 PM 87.1 °F - 52.9 °F 31% 30.12 in 10.0 mi SSW 6.9 mph - N/A   Clear
5:15 PM 87.1 °F 84.9 °F 53.4 °F 31% 30.12 in 10.0 mi SSW 6.9 mph - N/A   Clear
5:35 PM 86.7 °F 84.7 °F 53.2 °F 32% 30.12 in 10.0 mi South 6.9 mph - N/A   Clear
5:55 PM 86.4 °F - 52.3 °F 31% 30.12 in 10.0 mi South 5.8 mph - N/A   Clear
6:15 PM 86.0 °F 84.0 °F 53.2 °F 32% 30.12 in 10.0 mi South 4.6 mph - N/A   Clear
6:35 PM 85.1 °F 84.1 °F 56.5 °F 38% 30.12 in 10.0 mi South 5.8 mph - N/A   Clear
6:55 PM 84.4 °F 83.5 °F 56.8 °F 39% 30.12 in 10.0 mi South 3.5 mph - N/A   Clear
7:15 PM 83.3 °F 82.6 °F 56.5 °F 40% 30.11 in 7.0 mi South 3.5 mph - N/A   Clear
7:35 PM 82.2 °F 82.0 °F 57.6 °F 43% 30.11 in 10.0 mi Calm Calm - N/A   Clear
7:55 PM 79.3 °F - 60.1 °F 52% 30.12 in 10.0 mi Calm Calm - N/A   Clear
8:15 PM 77.9 °F - 59.7 °F 53% 30.12 in 10.0 mi Calm Calm - N/A   Clear
8:35 PM 75.4 °F - 61.7 °F 62% 30.12 in 10.0 mi Calm Calm - N/A   Clear
8:55 PM 75.2 °F - 59.7 °F 58% 30.12 in 10.0 mi Calm Calm - N/A   Clear
9:15 PM 74.3 °F - 60.1 °F 61% 30.12 in 10.0 mi Calm Calm - N/A   Clear
9:35 PM 75.0 °F - 58.5 °F 56% 30.13 in 10.0 mi SSW 3.5 mph - N/A   Clear
9:55 PM 71.2 °F - 60.3 °F 68% 30.14 in 10.0 mi Calm Calm - N/A   Clear
10:15 PM 70.7 °F - 61.0 °F 71% 30.15 in 10.0 mi Calm Calm - N/A   Clear
10:35 PM 68.9 °F - 60.6 °F 75% 30.15 in 10.0 mi Calm Calm - N/A   Clear
10:55 PM 68.9 °F - 60.4 °F 74% 30.14 in 10.0 mi South 3.5 mph - N/A   Clear
11:15 PM 69.8 °F - 59.9 °F 71% 30.14 in 10.0 mi SSW 3.5 mph - N/A   Clear
11:35 PM 71.2 °F - 60.3 °F 68% 30.14 in 10.0 mi Calm Calm - N/A   Clear
11:55 PM 71.1 °F - 60.3 °F 69% 30.14 in 10.0 mi Calm Calm - N/A   Clear